sensor_id;sensor_type;location;lat;lon;timestamp;pressure;altitude;pressure_sealevel;temperature;humidity
19594;BME280;9944;48.240;16.478;2023-12-22T00:03:04;97539.34;;;6.00;76.40
19594;BME280;9944;48.240;16.478;2023-12-22T00:07:09;97557.56;;;6.05;75.61
19594;BME280;9944;48.240;16.478;2023-12-22T00:11:12;97561.88;;;6.07;74.22
19594;BME280;9944;48.240;16.478;2023-12-22T00:15:15;97568.69;;;6.15;73.24
19594;BME280;9944;48.240;16.478;2023-12-22T00:19:18;97593.03;;;6.20;72.07
19594;BME280;9944;48.240;16.478;2023-12-22T00:23:23;97519.63;;;6.23;71.78
19594;BME280;9944;48.240;16.478;2023-12-22T00:27:26;97514.38;;;6.23;70.63
19594;BME280;9944;48.240;16.478;2023-12-22T00:31:30;97537.13;;;6.21;69.21
19594;BME280;9944;48.240;16.478;2023-12-22T00:35:33;97556.38;;;6.20;69.58
19594;BME280;9944;48.240;16.478;2023-12-22T00:39:39;97582.63;;;6.17;69.19
19594;BME280;9944;48.240;16.478;2023-12-22T00:43:42;97584.34;;;6.18;68.72
19594;BME280;9944;48.240;16.478;2023-12-22T00:47:45;97587.00;;;6.16;68.23
19594;BME280;9944;48.240;16.478;2023-12-22T00:51:49;97580.81;;;6.19;68.02
19594;BME280;9944;48.240;16.478;2023-12-22T00:55:54;97590.50;;;6.15;67.91
19594;BME280;9944;48.240;16.478;2023-12-22T00:59:57;97578.28;;;6.14;67.77
19594;BME280;9944;48.240;16.478;2023-12-22T01:04:01;97597.53;;;6.13;67.08
19594;BME280;9944;48.240;16.478;2023-12-22T01:08:04;97618.56;;;6.10;67.00
19594;BME280;9944;48.240;16.478;2023-12-22T01:12:09;97602.84;;;6.10;66.84
19594;BME280;9944;48.240;16.478;2023-12-22T01:16:12;97622.09;;;6.09;67.41
19594;BME280;9944;48.240;16.478;2023-12-22T01:20:17;97619.53;;;6.06;66.77
19594;BME280;9944;48.240;16.478;2023-12-22T01:24:20;97625.66;;;6.05;67.12
19594;BME280;9944;48.240;16.478;2023-12-22T01:28:25;97654.50;;;6.02;66.81
19594;BME280;9944;48.240;16.478;2023-12-22T01:32:28;97639.75;;;5.98;66.82
19594;BME280;9944;48.240;16.478;2023-12-22T01:36:37;97612.72;;;5.97;66.62
19594;BME280;9944;48.240;16.478;2023-12-22T01:40:40;97634.59;;;5.95;65.51
19594;BME280;9944;48.240;16.478;2023-12-22T01:44:45;97629.34;;;5.95;65.98
19594;BME280;9944;48.240;16.478;2023-12-22T01:48:48;97636.31;;;5.96;64.05
19594;BME280;9944;48.240;16.478;2023-12-22T01:52:52;97646.78;;;5.96;63.48
19594;BME280;9944;48.240;16.478;2023-12-22T01:56:56;97627.56;;;5.97;63.34
19594;BME280;9944;48.240;16.478;2023-12-22T02:01:01;97652.88;;;5.96;62.91
19594;BME280;9944;48.240;16.478;2023-12-22T02:05:06;97648.59;;;5.94;62.80
19594;BME280;9944;48.240;16.478;2023-12-22T02:09:11;97644.19;;;5.94;62.89
19594;BME280;9944;48.240;16.478;2023-12-22T02:13:14;97647.72;;;5.91;62.71
19594;BME280;9944;48.240;16.478;2023-12-22T02:17:24;97680.06;;;5.90;62.66
19594;BME280;9944;48.240;16.478;2023-12-22T02:21:29;97685.34;;;5.87;62.30
19594;BME280;9944;48.240;16.478;2023-12-22T02:25:34;97682.72;;;5.87;61.49
19594;BME280;9944;48.240;16.478;2023-12-22T02:29:42;97671.44;;;5.85;61.63
19594;BME280;9944;48.240;16.478;2023-12-22T02:33:47;97659.22;;;5.84;61.24
19594;BME280;9944;48.240;16.478;2023-12-22T02:37:51;97661.00;;;5.82;61.39
19594;BME280;9944;48.240;16.478;2023-12-22T02:41:57;97660.16;;;5.82;60.51
19594;BME280;9944;48.240;16.478;2023-12-22T02:46:00;97675.13;;;5.73;59.75
19594;BME280;9944;48.240;16.478;2023-12-22T02:50:04;97674.41;;;5.65;59.50
19594;BME280;9944;48.240;16.478;2023-12-22T02:54:07;97686.78;;;5.59;59.94
19594;BME280;9944;48.240;16.478;2023-12-22T02:58:12;97678.97;;;5.56;58.85
19594;BME280;9944;48.240;16.478;2023-12-22T03:02:15;97684.25;;;5.52;58.20
19594;BME280;9944;48.240;16.478;2023-12-22T03:06:19;97679.06;;;5.49;58.66
19594;BME280;9944;48.240;16.478;2023-12-22T03:10:23;97680.03;;;5.45;58.96
19594;BME280;9944;48.240;16.478;2023-12-22T03:14:28;97680.94;;;5.41;57.70
19594;BME280;9944;48.240;16.478;2023-12-22T03:18:31;97691.41;;;5.41;58.41
19594;BME280;9944;48.240;16.478;2023-12-22T03:22:34;97707.19;;;5.38;58.24
19594;BME280;9944;48.240;16.478;2023-12-22T03:26:37;97700.25;;;5.34;58.00
19594;BME280;9944;48.240;16.478;2023-12-22T03:30:42;97707.31;;;5.29;57.06
19594;BME280;9944;48.240;16.478;2023-12-22T03:34:45;97698.69;;;5.24;57.07
19594;BME280;9944;48.240;16.478;2023-12-22T03:38:49;97673.47;;;5.20;57.76
19594;BME280;9944;48.240;16.478;2023-12-22T03:42:52;97691.84;;;5.15;57.05
19594;BME280;9944;48.240;16.478;2023-12-22T03:46:56;97702.41;;;5.10;56.95
19594;BME280;9944;48.240;16.478;2023-12-22T03:50:59;97708.50;;;5.09;57.10
19594;BME280;9944;48.240;16.478;2023-12-22T03:55:03;97716.38;;;5.06;56.96
19594;BME280;9944;48.240;16.478;2023-12-22T03:59:06;97719.94;;;5.04;57.12
19594;BME280;9944;48.240;16.478;2023-12-22T04:03:11;97726.97;;;5.00;56.91
19594;BME280;9944;48.240;16.478;2023-12-22T04:07:14;97730.44;;;4.99;57.85
19594;BME280;9944;48.240;16.478;2023-12-22T04:11:17;97711.31;;;4.97;58.96
19594;BME280;9944;48.240;16.478;2023-12-22T04:15:20;97712.25;;;4.93;60.16
19594;BME280;9944;48.240;16.478;2023-12-22T04:19:25;97707.94;;;4.90;61.20
19594;BME280;9944;48.240;16.478;2023-12-22T04:23:28;97714.13;;;4.85;62.12
19594;BME280;9944;48.240;16.478;2023-12-22T04:27:33;97723.78;;;4.79;62.51
19594;BME280;9944;48.240;16.478;2023-12-22T04:31:36;97736.88;;;4.75;63.65
19594;BME280;9944;48.240;16.478;2023-12-22T04:35:40;97760.50;;;4.70;63.92
19594;BME280;9944;48.240;16.478;2023-12-22T04:39:43;97760.56;;;4.64;64.54
19594;BME280;9944;48.240;16.478;2023-12-22T04:43:46;97768.44;;;4.59;64.53
19594;BME280;9944;48.240;16.478;2023-12-22T04:47:49;97785.03;;;4.57;64.34
19594;BME280;9944;48.240;16.478;2023-12-22T04:51:55;97780.75;;;4.53;64.79
19594;BME280;9944;48.240;16.478;2023-12-22T04:56:03;97783.31;;;4.54;65.11
19594;BME280;9944;48.240;16.478;2023-12-22T05:00:07;97778.97;;;4.55;65.17
19594;BME280;9944;48.240;16.478;2023-12-22T05:04:10;97776.38;;;4.55;65.46
19594;BME280;9944;48.240;16.478;2023-12-22T05:08:15;97776.34;;;4.56;65.57
19594;BME280;9944;48.240;16.478;2023-12-22T05:12:18;97785.00;;;4.62;65.53
19594;BME280;9944;48.240;16.478;2023-12-22T05:16:22;97777.16;;;4.62;65.71
19594;BME280;9944;48.240;16.478;2023-12-22T05:20:25;97762.34;;;4.62;65.64
19594;BME280;9944;48.240;16.478;2023-12-22T05:24:29;97770.16;;;4.64;65.61
19594;BME280;9944;48.240;16.478;2023-12-22T05:28:33;97772.75;;;4.65;65.70
19594;BME280;9944;48.240;16.478;2023-12-22T05:32:36;97765.75;;;4.67;64.28
19594;BME280;9944;48.240;16.478;2023-12-22T05:36:39;97767.47;;;4.68;64.03
19594;BME280;9944;48.240;16.478;2023-12-22T05:40:43;97762.22;;;4.71;63.73
19594;BME280;9944;48.240;16.478;2023-12-22T05:44:46;97736.06;;;4.71;63.08
19594;BME280;9944;48.240;16.478;2023-12-22T05:48:51;97722.13;;;4.72;62.62
19594;BME280;9944;48.240;16.478;2023-12-22T05:52:57;97746.53;;;4.71;61.96
19594;BME280;9944;48.240;16.478;2023-12-22T05:57:03;97734.38;;;4.70;62.60
19594;BME280;9944;48.240;16.478;2023-12-22T06:01:08;97748.31;;;4.69;62.94
19594;BME280;9944;48.240;16.478;2023-12-22T06:05:16;97759.63;;;4.68;63.20
19594;BME280;9944;48.240;16.478;2023-12-22T06:09:20;97750.06;;;4.67;63.32
19594;BME280;9944;48.240;16.478;2023-12-22T06:13:25;97744.84;;;4.67;63.27
19594;BME280;9944;48.240;16.478;2023-12-22T06:17:28;97756.25;;;4.63;63.13
19594;BME280;9944;48.240;16.478;2023-12-22T06:21:31;97770.19;;;4.62;63.72
19594;BME280;9944;48.240;16.478;2023-12-22T06:25:34;97759.84;;;4.53;63.85
19594;BME280;9944;48.240;16.478;2023-12-22T06:29:39;97777.34;;;4.45;64.54
19594;BME280;9944;48.240;16.478;2023-12-22T06:33:42;97780.88;;;4.40;64.65
19594;BME280;9944;48.240;16.478;2023-12-22T06:37:46;97786.16;;;4.36;65.05
19594;BME280;9944;48.240;16.478;2023-12-22T06:41:49;97792.34;;;4.30;65.68
19594;BME280;9944;48.240;16.478;2023-12-22T06:45:54;97792.38;;;4.24;65.56
19594;BME280;9944;48.240;16.478;2023-12-22T06:49:57;97792.44;;;4.19;66.32
19594;BME280;9944;48.240;16.478;2023-12-22T06:54:01;97802.94;;;4.15;66.72
19594;BME280;9944;48.240;16.478;2023-12-22T06:58:04;97789.88;;;4.15;66.76
19594;BME280;9944;48.240;16.478;2023-12-22T07:02:09;97803.81;;;4.14;66.82
19594;BME280;9944;48.240;16.478;2023-12-22T07:06:22;97812.50;;;4.14;67.27
19594;BME280;9944;48.240;16.478;2023-12-22T07:10:28;97797.72;;;4.15;68.21
19594;BME280;9944;48.240;16.478;2023-12-22T07:14:31;97802.03;;;4.16;68.03
19594;BME280;9944;48.240;16.478;2023-12-22T07:18:39;97815.94;;;4.19;68.16
19594;BME280;9944;48.240;16.478;2023-12-22T07:22:44;97803.78;;;4.18;68.16
19594;BME280;9944;48.240;16.478;2023-12-22T07:26:47;97790.72;;;4.17;68.31
19594;BME280;9944;48.240;16.478;2023-12-22T07:30:52;97770.72;;;4.16;68.30
19594;BME280;9944;48.240;16.478;2023-12-22T07:34:58;97790.75;;;4.14;68.55
19594;BME280;9944;48.240;16.478;2023-12-22T07:39:02;97787.28;;;4.13;68.49
19594;BME280;9944;48.240;16.478;2023-12-22T07:43:08;97809.94;;;4.13;68.27
19594;BME280;9944;48.240;16.478;2023-12-22T07:47:11;97802.97;;;4.12;68.32
19594;BME280;9944;48.240;16.478;2023-12-22T07:51:16;97816.00;;;4.15;68.48
19594;BME280;9944;48.240;16.478;2023-12-22T07:55:19;97808.97;;;4.20;68.42
19594;BME280;9944;48.240;16.478;2023-12-22T07:59:23;97818.47;;;4.27;68.48
19594;BME280;9944;48.240;16.478;2023-12-22T08:03:32;97813.19;;;4.32;68.16
19594;BME280;9944;48.240;16.478;2023-12-22T08:07:37;97837.59;;;4.32;68.10
19594;BME280;9944;48.240;16.478;2023-12-22T08:11:41;97834.97;;;4.34;67.81
19594;BME280;9944;48.240;16.478;2023-12-22T08:15:44;97824.50;;;4.35;67.96
19594;BME280;9944;48.240;16.478;2023-12-22T08:19:47;97826.22;;;4.33;67.70
19594;BME280;9944;48.240;16.478;2023-12-22T08:23:55;97841.88;;;4.35;67.79
19594;BME280;9944;48.240;16.478;2023-12-22T08:27:58;97843.63;;;4.36;67.61
19594;BME280;9944;48.240;16.478;2023-12-22T08:32:03;97845.38;;;4.35;67.63
19594;BME280;9944;48.240;16.478;2023-12-22T08:36:07;97854.97;;;4.33;67.85
19594;BME280;9944;48.240;16.478;2023-12-22T08:40:12;97855.88;;;4.29;67.77
19594;BME280;9944;48.240;16.478;2023-12-22T08:44:17;97851.50;;;4.33;67.56
19594;BME280;9944;48.240;16.478;2023-12-22T08:48:20;97842.78;;;4.35;67.70
19594;BME280;9944;48.240;16.478;2023-12-22T08:52:23;97847.06;;;4.41;67.69
19594;BME280;9944;48.240;16.478;2023-12-22T08:56:28;97854.81;;;4.49;67.36
19594;BME280;9944;48.240;16.478;2023-12-22T09:00:31;97842.56;;;4.52;67.12
19594;BME280;9944;48.240;16.478;2023-12-22T09:04:35;97846.00;;;4.56;66.88
19594;BME280;9944;48.240;16.478;2023-12-22T09:08:38;97852.09;;;4.58;66.83
19594;BME280;9944;48.240;16.478;2023-12-22T09:12:43;97854.72;;;4.58;67.13
19594;BME280;9944;48.240;16.478;2023-12-22T09:16:46;97831.97;;;4.66;66.84
19594;BME280;9944;48.240;16.478;2023-12-22T09:20:50;97819.69;;;4.71;66.85
19594;BME280;9944;48.240;16.478;2023-12-22T09:24:53;97803.06;;;4.78;66.87
19594;BME280;9944;48.240;16.478;2023-12-22T09:28:57;97796.91;;;4.83;66.54
19594;BME280;9944;48.240;16.478;2023-12-22T09:33:00;97810.78;;;4.89;65.99
19594;BME280;9944;48.240;16.478;2023-12-22T09:37:04;97828.09;;;4.98;65.04
19594;BME280;9944;48.240;16.478;2023-12-22T09:41:07;97833.22;;;5.04;64.80
19594;BME280;9944;48.240;16.478;2023-12-22T09:45:12;97831.38;;;5.12;64.07
19594;BME280;9944;48.240;16.478;2023-12-22T09:49:17;97839.19;;;5.15;64.04
19594;BME280;9944;48.240;16.478;2023-12-22T09:53:23;97831.34;;;5.15;63.53
19594;BME280;9944;48.240;16.478;2023-12-22T09:57:28;97827.81;;;5.16;63.58
19594;BME280;9944;48.240;16.478;2023-12-22T10:01:34;97823.41;;;5.20;63.79
19594;BME280;9944;48.240;16.478;2023-12-22T10:05:40;97826.81;;;5.27;64.06
19594;BME280;9944;48.240;16.478;2023-12-22T10:09:44;97832.88;;;5.29;63.42
19594;BME280;9944;48.240;16.478;2023-12-22T10:13:50;97850.31;;;5.30;63.04
19594;BME280;9944;48.240;16.478;2023-12-22T10:17:57;97859.00;;;5.32;62.73
19594;BME280;9944;48.240;16.478;2023-12-22T10:22:00;97859.81;;;5.35;62.67
19594;BME280;9944;48.240;16.478;2023-12-22T10:26:03;97852.88;;;5.34;62.70
19594;BME280;9944;48.240;16.478;2023-12-22T10:30:07;97872.88;;;5.37;62.39
19594;BME280;9944;48.240;16.478;2023-12-22T10:34:12;97860.75;;;5.33;62.85
19594;BME280;9944;48.240;16.478;2023-12-22T10:38:18;97875.50;;;5.37;62.74
19594;BME280;9944;48.240;16.478;2023-12-22T10:42:26;97862.38;;;5.40;60.47
19594;BME280;9944;48.240;16.478;2023-12-22T10:46:30;97845.75;;;5.43;60.60
19594;BME280;9944;48.240;16.478;2023-12-22T10:50:39;97796.84;;;5.48;58.93
19594;BME280;9944;48.240;16.478;2023-12-22T10:54:42;97838.59;;;5.56;58.02
19594;BME280;9944;48.240;16.478;2023-12-22T10:58:46;97844.59;;;5.64;56.44
19594;BME280;9944;48.240;16.478;2023-12-22T11:02:56;97847.97;;;5.70;55.90
19594;BME280;9944;48.240;16.478;2023-12-22T11:07:03;97851.44;;;5.72;55.71
19594;BME280;9944;48.240;16.478;2023-12-22T11:11:13;97846.91;;;5.81;55.69
19594;BME280;9944;48.240;16.478;2023-12-22T11:15:21;97845.06;;;5.89;55.73
19594;BME280;9944;48.240;16.478;2023-12-22T11:19:27;97849.28;;;5.98;56.70
19594;BME280;9944;48.240;16.478;2023-12-22T11:23:35;97844.00;;;5.99;56.35
19594;BME280;9944;48.240;16.478;2023-12-22T11:27:39;97835.13;;;6.08;57.50
19594;BME280;9944;48.240;16.478;2023-12-22T11:31:44;97831.50;;;6.15;57.94
19594;BME280;9944;48.240;16.478;2023-12-22T11:35:49;97827.88;;;6.22;58.47
19594;BME280;9944;48.240;16.478;2023-12-22T11:39:54;97826.88;;;6.29;58.26
19594;BME280;9944;48.240;16.478;2023-12-22T11:43:58;97845.94;;;6.38;58.62
19594;BME280;9944;48.240;16.478;2023-12-22T11:48:07;97853.66;;;6.47;58.68
19594;BME280;9944;48.240;16.478;2023-12-22T11:52:12;97850.22;;;6.45;58.78
19594;BME280;9944;48.240;16.478;2023-12-22T11:56:17;97847.75;;;6.34;57.92
19594;BME280;9944;48.240;16.478;2023-12-22T12:00:40;97886.56;;;6.12;57.55
19594;BME280;9944;48.240;16.478;2023-12-22T12:04:43;97894.03;;;5.82;59.35
19594;BME280;9944;48.240;16.478;2023-12-22T12:08:46;97963.34;;;5.55;62.55
19594;BME280;9944;48.240;16.478;2023-12-22T12:13:05;97925.19;;;5.39;64.98
19594;BME280;9944;48.240;16.478;2023-12-22T12:17:09;97867.25;;;5.01;65.33
19594;BME280;9944;48.240;16.478;2023-12-22T12:21:15;97868.47;;;4.75;65.56
19594;BME280;9944;48.240;16.478;2023-12-22T12:25:21;97858.06;;;4.69;67.67
19594;BME280;9944;48.240;16.478;2023-12-22T12:29:37;97850.25;;;4.68;67.14
19594;BME280;9944;48.240;16.478;2023-12-22T12:33:42;97839.78;;;4.66;67.14
19594;BME280;9944;48.240;16.478;2023-12-22T12:37:46;97820.66;;;4.66;67.29
19594;BME280;9944;48.240;16.478;2023-12-22T12:41:54;97818.00;;;4.70;66.59
19594;BME280;9944;48.240;16.478;2023-12-22T12:46:04;97800.53;;;4.72;66.00
19594;BME280;9944;48.240;16.478;2023-12-22T12:50:08;97803.03;;;4.80;64.07
19594;BME280;9944;48.240;16.478;2023-12-22T12:54:14;97820.31;;;4.92;63.28
19594;BME280;9944;48.240;16.478;2023-12-22T12:58:17;97828.94;;;5.00;62.31
19594;BME280;9944;48.240;16.478;2023-12-22T13:02:22;97811.34;;;5.10;61.10
19594;BME280;9944;48.240;16.478;2023-12-22T13:06:26;97812.13;;;5.18;59.89
19594;BME280;9944;48.240;16.478;2023-12-22T13:10:29;97810.19;;;5.31;57.02
19594;BME280;9944;48.240;16.478;2023-12-22T13:14:33;97807.44;;;5.40;56.10
19594;BME280;9944;48.240;16.478;2023-12-22T13:18:39;97815.13;;;5.49;54.29
19594;BME280;9944;48.240;16.478;2023-12-22T13:22:43;97804.56;;;5.57;54.38
19594;BME280;9944;48.240;16.478;2023-12-22T13:26:58;97822.78;;;5.63;52.37
19594;BME280;9944;48.240;16.478;2023-12-22T13:31:02;97834.06;;;5.67;52.67
19594;BME280;9944;48.240;16.478;2023-12-22T13:35:08;97831.38;;;5.71;51.29
19594;BME280;9944;48.240;16.478;2023-12-22T13:39:12;97818.25;;;5.73;51.96
19594;BME280;9944;48.240;16.478;2023-12-22T13:43:15;97807.75;;;5.76;51.40
19594;BME280;9944;48.240;16.478;2023-12-22T13:47:19;97827.78;;;5.77;51.66
19594;BME280;9944;48.240;16.478;2023-12-22T13:51:24;97831.22;;;5.79;49.93
19594;BME280;9944;48.240;16.478;2023-12-22T13:55:27;97838.19;;;5.82;50.28
19594;BME280;9944;48.240;16.478;2023-12-22T13:59:32;97826.88;;;5.81;50.63
19594;BME280;9944;48.240;16.478;2023-12-22T14:03:35;97839.97;;;5.81;50.93
19594;BME280;9944;48.240;16.478;2023-12-22T14:07:39;97835.56;;;5.83;49.23
19594;BME280;9944;48.240;16.478;2023-12-22T14:11:42;97831.13;;;5.87;49.11
19594;BME280;9944;48.240;16.478;2023-12-22T14:15:58;97838.06;;;5.88;49.57
19594;BME280;9944;48.240;16.478;2023-12-22T14:20:02;97835.50;;;5.86;48.87
19594;BME280;9944;48.240;16.478;2023-12-22T14:24:08;97803.19;;;5.86;48.28
19594;BME280;9944;48.240;16.478;2023-12-22T14:28:11;97823.28;;;5.85;48.98
19594;BME280;9944;48.240;16.478;2023-12-22T14:32:15;97837.25;;;5.84;49.17
19594;BME280;9944;48.240;16.478;2023-12-22T14:36:20;97859.09;;;5.85;49.54
19594;BME280;9944;48.240;16.478;2023-12-22T14:40:25;97872.22;;;5.83;48.94
19594;BME280;9944;48.240;16.478;2023-12-22T14:44:28;97883.63;;;5.78;49.18
19594;BME280;9944;48.240;16.478;2023-12-22T14:48:31;97885.47;;;5.72;49.65
19594;BME280;9944;48.240;16.478;2023-12-22T14:52:35;97889.94;;;5.66;50.20
19594;BME280;9944;48.240;16.478;2023-12-22T14:56:40;97917.03;;;5.60;51.04
19594;BME280;9944;48.240;16.478;2023-12-22T15:00:43;97921.53;;;5.53;52.42
19594;BME280;9944;48.240;16.478;2023-12-22T15:04:48;97912.09;;;5.42;53.59
19594;BME280;9944;48.240;16.478;2023-12-22T15:08:51;97912.25;;;5.29;54.87
19594;BME280;9944;48.240;16.478;2023-12-22T15:12:56;97897.56;;;5.18;55.36
19594;BME280;9944;48.240;16.478;2023-12-22T15:16:59;97910.78;;;5.08;56.59
19594;BME280;9944;48.240;16.478;2023-12-22T15:21:03;97931.88;;;4.91;59.26
19594;BME280;9944;48.240;16.478;2023-12-22T15:25:06;97932.88;;;4.79;59.20
19594;BME280;9944;48.240;16.478;2023-12-22T15:29:11;97946.94;;;4.66;60.13
19594;BME280;9944;48.240;16.478;2023-12-22T15:33:14;97934.84;;;4.56;60.84
19594;BME280;9944;48.240;16.478;2023-12-22T15:37:17;97906.19;;;4.50;61.56
19594;BME280;9944;48.240;16.478;2023-12-22T15:41:21;97890.53;;;4.45;62.34
19594;BME280;9944;48.240;16.478;2023-12-22T15:45:25;97874.91;;;4.42;62.17
19594;BME280;9944;48.240;16.478;2023-12-22T15:49:28;97868.00;;;4.38;62.43
19594;BME280;9944;48.240;16.478;2023-12-22T15:53:36;97856.72;;;4.31;62.89
19594;BME280;9944;48.240;16.478;2023-12-22T15:57:39;97855.03;;;4.27;63.43
19594;BME280;9944;48.240;16.478;2023-12-22T16:01:44;97841.97;;;4.27;63.29
19594;BME280;9944;48.240;16.478;2023-12-22T16:05:48;97816.72;;;4.28;63.33
19594;BME280;9944;48.240;16.478;2023-12-22T16:09:51;97804.53;;;4.28;63.49
19594;BME280;9944;48.240;16.478;2023-12-22T16:13:55;97797.56;;;4.30;62.90
19594;BME280;9944;48.240;16.478;2023-12-22T16:18:00;97798.38;;;4.34;62.88
19594;BME280;9944;48.240;16.478;2023-12-22T16:22:04;97800.06;;;4.38;62.63
19594;BME280;9944;48.240;16.478;2023-12-22T16:26:07;97827.03;;;4.40;62.67
19594;BME280;9944;48.240;16.478;2023-12-22T16:30:11;97826.09;;;4.46;62.37
19594;BME280;9944;48.240;16.478;2023-12-22T16:34:15;97826.91;;;4.51;62.01
19594;BME280;9944;48.240;16.478;2023-12-22T16:38:18;97804.22;;;4.56;61.70
19594;BME280;9944;48.240;16.478;2023-12-22T16:42:22;97791.09;;;4.60;61.37
19594;BME280;9944;48.240;16.478;2023-12-22T16:46:26;97807.53;;;4.70;59.95
19594;BME280;9944;48.240;16.478;2023-12-22T16:50:30;97828.31;;;4.79;59.61
19594;BME280;9944;48.240;16.478;2023-12-22T16:54:33;97805.59;;;4.85;58.74
19594;BME280;9944;48.240;16.478;2023-12-22T16:58:37;97800.25;;;4.94;58.76
19594;BME280;9944;48.240;16.478;2023-12-22T17:02:40;97811.59;;;4.94;58.63
19594;BME280;9944;48.240;16.478;2023-12-22T17:06:48;97820.31;;;4.93;59.08
19594;BME280;9944;48.240;16.478;2023-12-22T17:10:52;97822.03;;;4.94;59.27
19594;BME280;9944;48.240;16.478;2023-12-22T17:14:56;97824.69;;;4.93;59.21
19594;BME280;9944;48.240;16.478;2023-12-22T17:18:59;97849.94;;;4.92;59.49
19594;BME280;9944;48.240;16.478;2023-12-22T17:23:05;97867.34;;;4.95;59.36
19594;BME280;9944;48.240;16.478;2023-12-22T17:27:08;97880.38;;;4.98;59.30
19594;BME280;9944;48.240;16.478;2023-12-22T17:31:11;97880.38;;;4.98;58.93
19594;BME280;9944;48.240;16.478;2023-12-22T17:35:14;97884.66;;;5.04;59.30
19594;BME280;9944;48.240;16.478;2023-12-22T17:39:19;97885.53;;;5.03;59.20
19594;BME280;9944;48.240;16.478;2023-12-22T17:43:22;97869.84;;;5.04;59.33
19594;BME280;9944;48.240;16.478;2023-12-22T17:47:25;97888.16;;;5.03;59.52
19594;BME280;9944;48.240;16.478;2023-12-22T17:51:28;97897.75;;;5.02;59.73
19594;BME280;9944;48.240;16.478;2023-12-22T17:55:34;97897.78;;;4.99;59.85
19594;BME280;9944;48.240;16.478;2023-12-22T17:59:38;97922.22;;;4.98;60.32
19594;BME280;9944;48.240;16.478;2023-12-22T18:03:42;97927.47;;;4.95;61.33
19594;BME280;9944;48.240;16.478;2023-12-22T18:07:45;97919.72;;;4.87;62.36
19594;BME280;9944;48.240;16.478;2023-12-22T18:11:51;97903.19;;;4.84;63.45
19594;BME280;9944;48.240;16.478;2023-12-22T18:15:53;97912.06;;;4.72;63.95
19594;BME280;9944;48.240;16.478;2023-12-22T18:19:57;97915.66;;;4.63;64.37
19594;BME280;9944;48.240;16.478;2023-12-22T18:24:01;97932.19;;;4.60;64.63
19594;BME280;9944;48.240;16.478;2023-12-22T18:28:05;97917.44;;;4.56;65.67
19594;BME280;9944;48.240;16.478;2023-12-22T18:32:09;97916.63;;;4.50;65.58
19594;BME280;9944;48.240;16.478;2023-12-22T18:36:13;97918.41;;;4.48;66.09
19594;BME280;9944;48.240;16.478;2023-12-22T18:40:16;97884.47;;;4.45;66.56
19594;BME280;9944;48.240;16.478;2023-12-22T18:44:21;97882.81;;;4.37;67.07
19594;BME280;9944;48.240;16.478;2023-12-22T18:48:24;97887.19;;;4.35;67.60
19594;BME280;9944;48.240;16.478;2023-12-22T18:52:27;97884.59;;;4.32;67.83
19594;BME280;9944;48.240;16.478;2023-12-22T18:56:30;97885.50;;;4.27;68.18
19594;BME280;9944;48.240;16.478;2023-12-22T19:00:35;97868.13;;;4.22;68.43
19594;BME280;9944;48.240;16.478;2023-12-22T19:04:38;97876.88;;;4.18;68.87
19594;BME280;9944;48.240;16.478;2023-12-22T19:08:41;97869.91;;;4.17;69.04
19594;BME280;9944;48.240;16.478;2023-12-22T19:12:44;97876.06;;;4.15;69.26
19594;BME280;9944;48.240;16.478;2023-12-22T19:16:52;97869.09;;;4.11;69.54
19594;BME280;9944;48.240;16.478;2023-12-22T19:20:57;97855.22;;;4.09;69.78
19594;BME280;9944;48.240;16.478;2023-12-22T19:25:01;97843.94;;;4.05;70.56
19594;BME280;9944;48.240;16.478;2023-12-22T19:29:03;97828.28;;;4.00;71.38
19594;BME280;9944;48.240;16.478;2023-12-22T19:33:08;97826.59;;;3.96;71.36
19594;BME280;9944;48.240;16.478;2023-12-22T19:37:11;97822.25;;;3.94;71.50
19594;BME280;9944;48.240;16.478;2023-12-22T19:41:16;97829.22;;;3.93;71.86
19594;BME280;9944;48.240;16.478;2023-12-22T19:45:19;97834.44;;;3.90;72.01
19594;BME280;9944;48.240;16.478;2023-12-22T19:49:24;97832.72;;;3.92;72.51
19594;BME280;9944;48.240;16.478;2023-12-22T19:53:29;97825.72;;;3.94;72.95
19594;BME280;9944;48.240;16.478;2023-12-22T19:57:33;97817.91;;;3.93;72.92
19594;BME280;9944;48.240;16.478;2023-12-22T20:01:36;97817.09;;;3.88;73.23
19594;BME280;9944;48.240;16.478;2023-12-22T20:05:40;97820.63;;;3.82;73.42
19594;BME280;9944;48.240;16.478;2023-12-22T20:09:44;97825.84;;;3.79;73.86
19594;BME280;9944;48.240;16.478;2023-12-22T20:13:48;97814.59;;;3.75;74.11
19594;BME280;9944;48.240;16.478;2023-12-22T20:17:51;97812.91;;;3.71;74.51
19594;BME280;9944;48.240;16.478;2023-12-22T20:21:56;97817.25;;;3.68;74.80
19594;BME280;9944;48.240;16.478;2023-12-22T20:25:59;97831.19;;;3.65;75.02
19594;BME280;9944;48.240;16.478;2023-12-22T20:30:03;97836.44;;;3.62;75.10
19594;BME280;9944;48.240;16.478;2023-12-22T20:34:07;97819.94;;;3.57;75.40
19594;BME280;9944;48.240;16.478;2023-12-22T20:38:11;97806.97;;;3.52;75.83
19594;BME280;9944;48.240;16.478;2023-12-22T20:42:14;97793.91;;;3.52;75.64
19594;BME280;9944;48.240;16.478;2023-12-22T20:46:17;97769.63;;;3.47;75.88
19594;BME280;9944;48.240;16.478;2023-12-22T20:50:21;97760.13;;;3.37;75.73
19594;BME280;9944;48.240;16.478;2023-12-22T20:54:25;97775.81;;;3.27;75.98
19594;BME280;9944;48.240;16.478;2023-12-22T20:58:30;97754.22;;;3.13;75.83
19594;BME280;9944;48.240;16.478;2023-12-22T21:02:33;97743.88;;;2.98;75.82
19594;BME280;9944;48.240;16.478;2023-12-22T21:06:38;97731.78;;;2.92;76.05
19594;BME280;9944;48.240;16.478;2023-12-22T21:10:42;97736.13;;;2.88;76.49
19594;BME280;9944;48.240;16.478;2023-12-22T21:14:46;97704.06;;;2.77;77.07
19594;BME280;9944;48.240;16.478;2023-12-22T21:18:51;97731.88;;;2.75;76.79
19594;BME280;9944;48.240;16.478;2023-12-22T21:22:54;97752.72;;;2.75;77.12
19594;BME280;9944;48.240;16.478;2023-12-22T21:27:00;97748.34;;;2.77;77.70
19594;BME280;9944;48.240;16.478;2023-12-22T21:31:05;97790.03;;;2.83;77.97
19594;BME280;9944;48.240;16.478;2023-12-22T21:35:09;97793.47;;;2.85;77.90
19594;BME280;9944;48.240;16.478;2023-12-22T21:39:12;97763.09;;;2.84;78.24
19594;BME280;9944;48.240;16.478;2023-12-22T21:43:17;97780.44;;;2.87;78.71
19594;BME280;9944;48.240;16.478;2023-12-22T21:47:20;97789.09;;;2.94;79.93
19594;BME280;9944;48.240;16.478;2023-12-22T21:51:24;97801.22;;;3.01;80.48